DLH370 EDLW-EDDH
Flight info
| Callsign | DLH370 |
|---|---|
| Flight time | N/A |
| Altitude | 23000 |
| Route | OSN8Q/06 OSN DCT BASUM DCT MUBZI DCT RIBSO RIBSO7A |
| Aircraft | A20N/M-SDE2E3FGHIRWXY/LB1 |
Departure
| Time | 2026-05-06 15:01 |
|---|---|
| Airport | Dortmund Airport (EDLW) |
Arrival
| Time | N/A |
|---|---|
| Airport | Hamburg Helmut Schmidt Airport (EDDH) |
| Time | Latitude | Longitude | Altitude | Speed | Heading |
|---|---|---|---|---|---|
| 2026-05-06 14:42 | 51.51389 | 7.60942 | 437 ft | 0 kts | 144° |
| 2026-05-06 14:54 | 51.51394 | 7.60936 | 437 ft | 2 kts | 143° |
| 2026-05-06 14:54 | 51.51407 | 7.60920 | 422 ft | 2 kts | 141° |
| 2026-05-06 14:54 | 51.51419 | 7.60903 | 431 ft | 2 kts | 136° |
| 2026-05-06 14:55 | 51.51431 | 7.60884 | 421 ft | 2 kts | 126° |
| 2026-05-06 14:55 | 51.51438 | 7.60861 | 422 ft | 2 kts | 91° |
| 2026-05-06 14:55 | 51.51435 | 7.60838 | 421 ft | 1 kts | 62° |
| 2026-05-06 14:55 | 51.51434 | 7.60834 | 421 ft | 0 kts | 61° |
| 2026-05-06 14:56 | 51.51435 | 7.60835 | 421 ft | 0 kts | 61° |
| 2026-05-06 14:56 | 51.51435 | 7.60837 | 421 ft | 1 kts | 61° |
| 2026-05-06 14:56 | 51.51441 | 7.60853 | 427 ft | 3 kts | 61° |
| 2026-05-06 14:57 | 51.51455 | 7.60894 | 422 ft | 6 kts | 61° |
| 2026-05-06 14:57 | 51.51480 | 7.60964 | 428 ft | 9 kts | 60° |
| 2026-05-06 14:57 | 51.51517 | 7.61051 | 429 ft | 10 kts | 34° |
| 2026-05-06 14:57 | 51.51564 | 7.60985 | 428 ft | 13 kts | 255° |
| 2026-05-06 14:58 | 51.51521 | 7.60856 | 422 ft | 13 kts | 241° |
| 2026-05-06 14:58 | 51.51482 | 7.60744 | 421 ft | 0 kts | 241° |
| 2026-05-06 14:58 | 51.51482 | 7.60743 | 421 ft | 0 kts | 241° |
| 2026-05-06 14:59 | 51.51478 | 7.60731 | 421 ft | 2 kts | 240° |
| 2026-05-06 14:59 | 51.51467 | 7.60700 | 426 ft | 4 kts | 240° |
| 2026-05-06 14:59 | 51.51453 | 7.60659 | 419 ft | 4 kts | 241° |
| 2026-05-06 14:59 | 51.51438 | 7.60616 | 420 ft | 5 kts | 241° |
| 2026-05-06 15:00 | 51.51410 | 7.60533 | 417 ft | 12 kts | 241° |
| 2026-05-06 15:00 | 51.51363 | 7.60392 | 419 ft | 16 kts | 252° |
| 2026-05-06 15:00 | 51.51425 | 7.60253 | 425 ft | 19 kts | 331° |
| 2026-05-06 15:00 | 51.51484 | 7.60237 | 419 ft | 0 kts | 58° |
| 2026-05-06 15:01 | 51.51489 | 7.60249 | 418 ft | 10 kts | 59° |
| 2026-05-06 15:01 | 51.51648 | 7.60702 | 417 ft | 83 kts | 60° |
| 2026-05-06 15:01 | 51.52043 | 7.61794 | 426 ft | 140 kts | 57° |
| 2026-05-06 15:01 | 51.52563 | 7.63175 | 1081 ft | 147 kts | 56° |
| 2026-05-06 15:02 | 51.53110 | 7.64664 | 1836 ft | 161 kts | 58° |
| 2026-05-06 15:02 | 51.53676 | 7.66290 | 2643 ft | 171 kts | 59° |
| 2026-05-06 15:02 | 51.54231 | 7.67983 | 3343 ft | 176 kts | 60° |
| 2026-05-06 15:02 | 51.54811 | 7.69805 | 3909 ft | 190 kts | 60° |
| 2026-05-06 15:03 | 51.55452 | 7.71743 | 4631 ft | 202 kts | 59° |
| 2026-05-06 15:03 | 51.56181 | 7.73924 | 4913 ft | 241 kts | 59° |
| 2026-05-06 15:03 | 51.57082 | 7.76429 | 5004 ft | 271 kts | 58° |
| 2026-05-06 15:03 | 51.58052 | 7.79055 | 4995 ft | 274 kts | 56° |
| 2026-05-06 15:04 | 51.59374 | 7.81216 | 5166 ft | 273 kts | 28° |
| 2026-05-06 15:04 | 51.61183 | 7.82077 | 5862 ft | 274 kts | 359° |
| 2026-05-06 15:04 | 51.63029 | 7.81469 | 6858 ft | 272 kts | 333° |
| 2026-05-06 15:04 | 51.64680 | 7.80023 | 7780 ft | 277 kts | 327° |
| 2026-05-06 15:05 | 51.66407 | 7.78567 | 8734 ft | 283 kts | 332° |
| 2026-05-06 15:05 | 51.68263 | 7.77383 | 9689 ft | 290 kts | 338° |
| 2026-05-06 15:05 | 51.70238 | 7.76428 | 10357 ft | 306 kts | 342° |
| 2026-05-06 15:05 | 51.72370 | 7.75574 | 10829 ft | 325 kts | 345° |
| 2026-05-06 15:06 | 51.74642 | 7.74754 | 11317 ft | 341 kts | 346° |
| 2026-05-06 15:06 | 51.76984 | 7.73932 | 12116 ft | 347 kts | 346° |
| 2026-05-06 15:06 | 51.79408 | 7.73482 | 12952 ft | 355 kts | 2° |
| 2026-05-06 15:06 | 51.81819 | 7.74414 | 13851 ft | 362 kts | 22° |
| 2026-05-06 15:07 | 51.83946 | 7.76629 | 14607 ft | 366 kts | 38° |
| 2026-05-06 15:07 | 51.85850 | 7.79316 | 15377 ft | 370 kts | 41° |
| 2026-05-06 15:07 | 51.87760 | 7.82157 | 16028 ft | 377 kts | 42° |
| 2026-05-06 15:07 | 51.89722 | 7.85059 | 16644 ft | 384 kts | 41° |
| 2026-05-06 15:08 | 51.91711 | 7.87955 | 17485 ft | 385 kts | 41° |
| 2026-05-06 15:08 | 51.93725 | 7.90850 | 18241 ft | 387 kts | 41° |
| 2026-05-06 15:08 | 51.95073 | 7.92776 | 18653 ft | 390 kts | 40° |
| 2026-05-06 15:08 | 51.97121 | 7.95696 | 19288 ft | 393 kts | 40° |
| 2026-05-06 15:09 | 51.99863 | 7.99602 | 20155 ft | 398 kts | 41° |
| 2026-05-06 15:09 | 52.01949 | 8.02577 | 20925 ft | 400 kts | 40° |
| 2026-05-06 15:09 | 52.04048 | 8.05574 | 21697 ft | 403 kts | 40° |
| 2026-05-06 15:09 | 52.05452 | 8.07585 | 22110 ft | 407 kts | 40° |
| 2026-05-06 15:10 | 52.07581 | 8.10641 | 22649 ft | 409 kts | 40° |
| 2026-05-06 15:10 | 52.09721 | 8.13717 | 22821 ft | 411 kts | 40° |
| 2026-05-06 15:10 | 52.11863 | 8.16797 | 22848 ft | 411 kts | 40° |
| 2026-05-06 15:10 | 52.14009 | 8.19887 | 22847 ft | 411 kts | 40° |
| 2026-05-06 15:11 | 52.16149 | 8.22971 | 22849 ft | 411 kts | 40° |
| 2026-05-06 15:11 | 52.18291 | 8.26060 | 22844 ft | 411 kts | 39° |
| 2026-05-06 15:11 | 52.20566 | 8.28875 | 22847 ft | 409 kts | 31° |
| 2026-05-06 15:11 | 52.23036 | 8.31174 | 22840 ft | 408 kts | 26° |
| 2026-05-06 15:12 | 52.25525 | 8.33315 | 22846 ft | 410 kts | 26° |
| 2026-05-06 15:12 | 52.28034 | 8.35497 | 22845 ft | 408 kts | 27° |
| 2026-05-06 15:12 | 52.30549 | 8.37694 | 22844 ft | 409 kts | 27° |
| 2026-05-06 15:12 | 52.33057 | 8.39884 | 22847 ft | 408 kts | 27° |
| 2026-05-06 15:13 | 52.35568 | 8.42080 | 22849 ft | 410 kts | 27° |
| 2026-05-06 15:13 | 52.38079 | 8.44275 | 22845 ft | 409 kts | 27° |
| 2026-05-06 15:13 | 52.40586 | 8.46470 | 22845 ft | 409 kts | 26° |
| 2026-05-06 15:13 | 52.43124 | 8.48689 | 22846 ft | 416 kts | 27° |
| 2026-05-06 15:14 | 52.45672 | 8.50923 | 22714 ft | 413 kts | 27° |
| 2026-05-06 15:14 | 52.48203 | 8.53144 | 22456 ft | 413 kts | 28° |
| 2026-05-06 15:14 | 52.50730 | 8.55367 | 22184 ft | 411 kts | 28° |
| 2026-05-06 15:14 | 52.53254 | 8.57591 | 21920 ft | 412 kts | 28° |
| 2026-05-06 15:15 | 52.55732 | 8.59778 | 21665 ft | 408 kts | 28° |
| 2026-05-06 15:15 | 52.58227 | 8.61984 | 21400 ft | 407 kts | 28° |
| 2026-05-06 15:15 | 52.60721 | 8.64190 | 21142 ft | 405 kts | 28° |
| 2026-05-06 15:15 | 52.63198 | 8.66384 | 20883 ft | 404 kts | 28° |
| 2026-05-06 15:16 | 52.65680 | 8.68586 | 20630 ft | 403 kts | 28° |
| 2026-05-06 15:16 | 52.68141 | 8.70772 | 20376 ft | 401 kts | 28° |
| 2026-05-06 15:16 | 52.70603 | 8.72961 | 20130 ft | 401 kts | 29° |
| 2026-05-06 15:16 | 52.73054 | 8.75141 | 19900 ft | 397 kts | 29° |
| 2026-05-06 15:17 | 52.75508 | 8.77263 | 19651 ft | 399 kts | 25° |
| 2026-05-06 15:17 | 52.78072 | 8.78864 | 19420 ft | 398 kts | 16° |
| 2026-05-06 15:17 | 52.80768 | 8.79859 | 19179 ft | 396 kts | 9° |
| 2026-05-06 15:17 | 52.83484 | 8.80612 | 18938 ft | 394 kts | 9° |
| 2026-05-06 15:18 | 52.86182 | 8.81385 | 18696 ft | 391 kts | 9° |
| 2026-05-06 15:18 | 52.88859 | 8.82159 | 18463 ft | 391 kts | 9° |
| 2026-05-06 15:18 | 52.91546 | 8.82934 | 18225 ft | 392 kts | 9° |
| 2026-05-06 15:18 | 52.94221 | 8.83703 | 17966 ft | 389 kts | 9° |
| 2026-05-06 15:19 | 52.96885 | 8.84468 | 17695 ft | 387 kts | 9° |
| 2026-05-06 15:19 | 52.99531 | 8.85228 | 17426 ft | 383 kts | 9° |
| 2026-05-06 15:19 | 53.02147 | 8.85980 | 17160 ft | 381 kts | 10° |
| 2026-05-06 15:19 | 53.04765 | 8.86734 | 16895 ft | 381 kts | 10° |
| 2026-05-06 15:20 | 53.07368 | 8.87484 | 16634 ft | 378 kts | 10° |
| 2026-05-06 15:20 | 53.09953 | 8.88230 | 16375 ft | 376 kts | 10° |
| 2026-05-06 15:20 | 53.12534 | 8.88976 | 16119 ft | 376 kts | 10° |
| 2026-05-06 15:20 | 53.15095 | 8.89718 | 15865 ft | 372 kts | 11° |
| 2026-05-06 15:21 | 53.17637 | 8.90454 | 15615 ft | 370 kts | 11° |
| 2026-05-06 15:21 | 53.20141 | 8.91181 | 15367 ft | 369 kts | 10° |
| 2026-05-06 15:21 | 53.22660 | 8.91913 | 15113 ft | 366 kts | 11° |
| 2026-05-06 15:21 | 53.25163 | 8.92641 | 14873 ft | 365 kts | 11° |
| 2026-05-06 15:22 | 53.27657 | 8.93368 | 14621 ft | 362 kts | 11° |
| 2026-05-06 15:22 | 53.30125 | 8.94088 | 14373 ft | 359 kts | 11° |
| 2026-05-06 15:22 | 53.32586 | 8.94804 | 14132 ft | 359 kts | 11° |
| 2026-05-06 15:22 | 53.35039 | 8.95522 | 13892 ft | 357 kts | 11° |
| 2026-05-06 15:23 | 53.37481 | 8.96236 | 13648 ft | 354 kts | 11° |
| 2026-05-06 15:23 | 53.39899 | 8.96943 | 13377 ft | 352 kts | 11° |
| 2026-05-06 15:23 | 53.42320 | 8.97656 | 13102 ft | 351 kts | 11° |
| 2026-05-06 15:23 | 53.44693 | 8.98353 | 12838 ft | 350 kts | 11° |
| 2026-05-06 15:24 | 53.47093 | 8.99057 | 12582 ft | 348 kts | 11° |
| 2026-05-06 15:24 | 53.49473 | 8.99759 | 12322 ft | 346 kts | 12° |
| 2026-05-06 15:24 | 53.51723 | 9.01059 | 12058 ft | 339 kts | 32° |
| 2026-05-06 15:24 | 53.53494 | 9.03600 | 11729 ft | 332 kts | 53° |
| 2026-05-06 15:25 | 53.54546 | 9.06976 | 11405 ft | 323 kts | 71° |
| 2026-05-06 15:25 | 53.55200 | 9.10493 | 11135 ft | 313 kts | 73° |
| 2026-05-06 15:25 | 53.55802 | 9.13936 | 10888 ft | 298 kts | 73° |
| 2026-05-06 15:25 | 53.56367 | 9.17206 | 10660 ft | 283 kts | 73° |
| 2026-05-06 15:26 | 53.56904 | 9.20337 | 10429 ft | 279 kts | 73° |
| 2026-05-06 15:26 | 53.57442 | 9.23508 | 10180 ft | 283 kts | 73° |
| 2026-05-06 15:26 | 53.57979 | 9.26695 | 9939 ft | 283 kts | 73° |
| 2026-05-06 15:26 | 53.58505 | 9.29866 | 9695 ft | 278 kts | 73° |
| 2026-05-06 15:27 | 53.59019 | 9.32993 | 9430 ft | 277 kts | 74° |
| 2026-05-06 15:27 | 53.59537 | 9.36143 | 9151 ft | 278 kts | 74° |
| 2026-05-06 15:27 | 53.60067 | 9.39250 | 8895 ft | 274 kts | 74° |
| 2026-05-06 15:27 | 53.60526 | 9.42285 | 8627 ft | 268 kts | 85° |
| 2026-05-06 15:28 | 53.60252 | 9.45382 | 8358 ft | 264 kts | 113° |
| 2026-05-06 15:28 | 53.59187 | 9.47786 | 8101 ft | 260 kts | 140° |
| 2026-05-06 15:28 | 53.57717 | 9.49512 | 7807 ft | 256 kts | 144° |
| 2026-05-06 15:28 | 53.56236 | 9.51156 | 7463 ft | 254 kts | 144° |
| 2026-05-06 15:29 | 53.54766 | 9.52797 | 7109 ft | 252 kts | 144° |
| 2026-05-06 15:29 | 53.53304 | 9.54418 | 6761 ft | 251 kts | 147° |
| 2026-05-06 15:29 | 53.51642 | 9.55296 | 6406 ft | 255 kts | 172° |
| 2026-05-06 15:29 | 53.49871 | 9.55494 | 6025 ft | 255 kts | 174° |
| 2026-05-06 15:30 | 53.48097 | 9.55682 | 5629 ft | 255 kts | 171° |
| 2026-05-06 15:30 | 53.46468 | 9.56636 | 5232 ft | 247 kts | 141° |
| 2026-05-06 15:30 | 53.45367 | 9.58767 | 4869 ft | 241 kts | 112° |
| 2026-05-06 15:30 | 53.45066 | 9.61496 | 4507 ft | 241 kts | 85° |
| 2026-05-06 15:31 | 53.45199 | 9.64329 | 4119 ft | 247 kts | 84° |
| 2026-05-06 15:31 | 53.45721 | 9.67048 | 3680 ft | 249 kts | 58° |
| 2026-05-06 15:31 | 53.46649 | 9.69482 | 3153 ft | 249 kts | 53° |
| 2026-05-06 15:32 | 53.49071 | 9.72857 | 2739 ft | 208 kts | 49° |
| 2026-05-06 15:32 | 53.50018 | 9.74649 | 1942 ft | 205 kts | 50° |
| 2026-05-06 15:32 | 53.50867 | 9.76332 | 2018 ft | 180 kts | 50° |
| 2026-05-06 15:32 | 53.51712 | 9.77994 | 2091 ft | 190 kts | 49° |
| 2026-05-06 15:33 | 53.52556 | 9.79650 | 2086 ft | 182 kts | 50° |
| 2026-05-06 15:33 | 53.53393 | 9.81298 | 2055 ft | 193 kts | 50° |
| 2026-05-06 15:33 | 53.54338 | 9.83122 | 2036 ft | 216 kts | 49° |
| 2026-05-06 15:33 | 53.55263 | 9.84820 | 1988 ft | 178 kts | 45° |
| 2026-05-06 15:34 | 53.56064 | 9.86183 | 1896 ft | 155 kts | 46° |
| 2026-05-06 15:34 | 53.56812 | 9.87461 | 1631 ft | 151 kts | 45° |
| 2026-05-06 15:34 | 53.57495 | 9.88670 | 1530 ft | 137 kts | 47° |
| 2026-05-06 15:34 | 53.58119 | 9.89802 | 1290 ft | 127 kts | 47° |
| 2026-05-06 15:35 | 53.58762 | 9.90923 | 1198 ft | 142 kts | 44° |
| 2026-05-06 15:35 | 53.59502 | 9.92101 | 1019 ft | 147 kts | 44° |
| 2026-05-06 15:35 | 53.60228 | 9.93286 | 695 ft | 144 kts | 46° |
| 2026-05-06 15:35 | 53.60882 | 9.94501 | 438 ft | 135 kts | 48° |
| 2026-05-06 15:36 | 53.61474 | 9.95669 | 260 ft | 125 kts | 50° |
| 2026-05-06 15:36 | 53.62037 | 9.96795 | 146 ft | 123 kts | 51° |
| 2026-05-06 15:36 | 53.62594 | 9.97956 | 677 ft | 139 kts | 51° |
| 2026-05-06 15:36 | 53.63249 | 9.99297 | 1307 ft | 160 kts | 51° |
| 2026-05-06 15:37 | 53.63985 | 10.00838 | 2184 ft | 170 kts | 52° |
| 2026-05-06 15:37 | 53.64731 | 10.02535 | 2884 ft | 203 kts | 54° |